WEATHER DATA

TODAY
Time Temp. Dewp. Hum. Wind dir Wind speed Wind gust Bar. 1h Prec. 24h Prec.
00:00 4.8 4.5 98 213 1.4 3.9 982.4 0.1370 0.0000
00:20 4.6 4.2 97 207 1.1 3.1 982.2 0.1370 0.0000
00:30 4.5 4.1 97 203 1.1 2.5 982.2 0.1370 0.0000
00:41 4.5 4.1 97 201 1.1 2.2 982 0.0000 0.0000
00:55 4.3 3.9 97 204 1.1 2.5 982.2 0.0000 0.0000
01:05 4.4 4 97 215 1.9 4.4 982.2 0.0000 0.0000
01:16 4.5 4.1 97 213 1.7 4.2 982.1 0.0000 0.0000
01:26 4.7 4.3 97 202 2.2 6.4 982 0.0000 0.0000
01:35 4.8 4.2 96 207 1.7 4.7 982.1 0.0000 0.0000
01:46 4.9 4.2 95 211 1.7 4.4 981.8 0.0000 0.0000
01:56 5 4.1 94 216 1.4 3.9 981.7 0.0000 0.0000
02:05 5 4.1 94 207 1.7 4.7 981.7 0.0000 0.0000
02:18 4.9 4 94 210 1.4 6.4 981.7 0.0000 0.0000
02:28 4.9 4 94 207 1.7 3.9 981.7 0.0000 0.0000
02:38 4.9 4 94 207 1.9 4.7 981.4 0.0000 0.0000
02:48 4.8 3.9 94 197 1.4 4.2 981.4 0.0000 0.0000
02:58 4.8 3.9 94 195 1.1 2.8 981.5 0.0000 0.0000
03:08 4.8 3.9 94 210 1.7 5 981.4 0.0000 0.0000
03:18 4.7 3.8 94 210 1.4 4.4 981.4 0.0000 0.0000
03:28 4.7 3.8 94 200 1.1 3.1 981.2 0.0000 0.0000
03:38 4.7 3.8 94 199 1.1 3.9 981.2 0.0000 0.0000
03:48 4.7 3.8 94 206 1.1 3.9 981 0.0000 0.0000
03:58 4.7 3.8 94 195 1.1 3.1 980.9 0.0000 0.0000
04:08 4.7 3.8 94 206 1.4 4.2 980.8 0.0000 0.0000
04:18 4.7 3.8 94 203 1.4 5 980.8 0.0000 0.0000
04:28 4.7 3.8 94 212 1.7 4.7 980.7 0.0000 0.0000
04:38 4.7 4 95 213 1.7 3.9 980.9 0.0000 0.0000
04:48 4.7 4 95 206 1.1 3.6 980.7 0.1370 0.1000
04:58 4.6 3.9 95 211 1.7 3.1 980.9 0.2740 0.3000
05:09 4.5 3.8 95 216 0.8 2.8 980.8 0.4110 0.4000
05:18 4.4 3.5 94 204 1.1 4.4 981 0.5480 0.5000
05:29 4.3 3.6 95 209 1.4 4.2 981 0.8220 0.8000
05:39 4.2 3.5 95 215 1.1 2.8 980.9 0.9590 1.1000
05:49 4.1 3.4 95 216 0.8 2.8 981.2 1.2330 1.4000
05:58 4.1 3.4 95 225 0.8 2.5 981.2 1.3700 1.6000
06:09 4 3.4 96 231 0.6 1.9 981.4 1.5070 1.9000
06:19 4 3.4 96 242 0.8 2.5 981.6 1.6440 2.2000
06:29 3.9 3.5 97 233 0.8 1.7 981.7 1.6440 2.5000
06:39 3.9 3.5 97 230 1.4 3.6 981.8 1.6440 2.7000
06:49 3.9 3.5 97 236 1.1 3.9 981.8 1.5070 2.9000
06:59 4 3.7 98 233 1.1 2.8 981.9 1.2330 2.9000
07:09 4 3.7 98 226 1.1 4.2 982.2 0.9590 2.9000
07:19 4 3.7 98 223 0.8 1.9 982.2 0.6850 2.9000
07:29 4 3.7 98 220 1.1 2.8 982.2 0.4110 2.9000
07:39 4 3.7 98 218 0.8 1.9 982.4 0.1370 2.9000
07:50 3.9 3.6 98 215 1.1 2.8 982.6 0.0000 2.9000
07:59 3.8 3.5 98 221 0.8 2.5 982.9 0.0000 2.9000
08:09 3.8 3.5 98 230 1.4 3.6 983 0.0000 2.9000
08:19 3.8 3.7 99 236 1.1 2.8 983.3 0.0000 2.9000
08:29 3.8 3.7 99 233 1.9 5 983.5 0.0000 2.9000
08:39 3.9 3.9 100 230 1.7 5.3 983.7 0.0000 2.9000
08:49 4.1 4.1 100 229 1.9 6.9 983.8 0.0000 2.9000
09:00 4.2 4.1 99 232 1.7 4.7 983.9 0.1370 3.0000
09:09 4.3 4.2 99 238 1.7 5.3 984.3 0.1370 3.0000
09:19 4.4 4.3 99 233 2.2 5.3 984.7 0.1370 3.0000
09:27 4.6 4.5 99 270 2.2 5.6 985.2 0.4110 3.3000
09:37 4.4 3.7 95 278 1.9 4.2 985.3 1.2340 4.1000
09:47 4.2 3.6 96 252 1.1 3.1 985.5 1.3710 4.3000
09:57 4.2 3.8 97 226 1.1 3.6 985.6 1.2340 4.3000
10:07 4.4 4.1 98 235 1.7 4.2 985.8 1.2340 4.3000
10:17 4.7 4.6 99 231 1.7 5.3 985.9 1.2340 4.3000
10:27 4.9 4.6 98 225 1.4 4.4 986.1 0.2740 4.3000
10:37 5 4.6 97 237 2.2 8.3 986.1 0.1370 4.3000
10:47 5.1 4.5 96 241 1.7 5 986.5 0.0000 4.3000
10:57 5.3 4.7 96 253 1.9 5 986.6 0.0000 4.3000
11:07 5.5 4.3 92 232 2.5 7.5 986.8 0.0000 4.3000
11:17 5.6 4.2 91 232 2.2 8.3 987 0.0000 4.3000
11:27 5.7 4.3 91 227 2.2 6.1 987.1 0.0000 4.3000
11:38 5.8 4.6 92 233 1.9 5 987.2 0.0000 4.3000
11:47 6 4.8 92 233 2.2 7.8 987.4 0.0000 4.3000
11:57 6.2 4.7 90 240 2.2 6.1 987.6 0.0000 4.3000
12:08 6.4 4.4 87 243 2.5 6.9 987.7 0.0000 4.3000
12:17 6.4 4.4 87 260 1.9 5.8 988 0.0000 4.3000
12:27 6.5 4.3 86 240 1.9 5.6 987.9 0.0000 4.3000
12:37 6.7 4.2 84 237 2.2 5.6 988.4 0.0000 4.3000
12:48 6.8 3.9 82 236 2.5 7.2 988.3 0.0000 4.3000
12:57 6.9 3.7 80 239 2.5 6.7 988.4 0.0000 4.3000
13:07 6.8 3.2 78 230 2.8 8.6 988.7 0.0000 4.3000
13:18 6.7 3.1 78 233 2.2 5.6 988.7 0.0000 4.3000
13:28 6.7 3.5 80 227 2.2 5.6 988.9 0.0000 4.3000
13:37 6.8 3.4 79 230 2.2 6.1 989.2 0.0000 4.3000
13:47 6.8 3.4 79 240 2.5 5.8 989.3 0.0000 4.3000
13:58 6.8 3.4 79 231 1.7 5 989.2 0.0000 4.3000
14:07 6.8 3.2 78 228 2.2 6.1 989.3 0.0000 4.3000
14:17 6.8 3.2 78 223 1.7 5.3 989.3 0.0000 4.3000
14:28 6.8 3.4 79 226 1.4 5 989.5 0.0000 4.3000
14:38 6.8 3.6 80 219 1.4 3.6 989.5 0.0000 4.3000
14:49 6.8 3.6 80 212 1.7 6.9 989.5 0.0000 4.3000
14:59 6.8 3.8 81 212 1.4 4.4 989.3 0.0000 4.3000
15:09 6.8 3.8 81 215 1.4 5.8 989.3 0.0000 4.3000
15:19 6.7 3.5 80 217 1.9 5.8 989.5 0.0000 4.3000
15:29 6.7 3.5 80 214 2.8 7.2 989.6 0.0000 4.3000
15:39 6.4 4.1 85 212 2.2 6.7 989.6 0.0000 4.3000
15:50 6 4.2 88 203 1.7 4.7 989.3 0.4110 4.7000
16:00 5.6 4.1 90 223 1.7 5 989.2 0.6850 4.9000
16:10 5.4 4.1 91 212 1.4 3.9 988.9 0.9590 5.2000
16:20 5.2 4 92 213 0.8 2.5 988.8 1.0960 5.3000
16:30 5.2 4.5 95 211 1.9 7.8 988.8 1.2330 5.5000
16:35 5.2 4.6 96 202 1.9 5.6 988.5 1.5070 5.8000
16:44 5.3 4.7 96 212 2.5 8.9 988.4 1.2330 5.9000
16:55 5.5 5.1 97 213 3.1 7.2 988.7 1.0960 6.0000
17:05 5.6 4.6 93 264 3.9 8.6 989.9 1.6450 6.9000
17:19 4.9 3.6 91 270 1.4 3.6 990.5 1.6450 7.0000
17:29 4.5 3.3 92 278 2.2 4.7 991.3 1.5080 7.0000
17:39 4.2 3.2 93 281 2.2 6.4 991.5 1.2340 7.0000
17:49 3.9 3 94 270 1.7 4.2 992.2 1.2340 7.1000
17:59 3.8 3.1 95 270 1.7 3.1 992.6 0.8220 7.4000
18:12 3.6 3 96 277 1.4 3.1 992.7 0.5480 7.5000
18:21 3.5 2.9 96 240 1.1 2.8 992.9 0.5480 7.5000
18:31 3.4 2.8 96 234 1.1 3.6 993.1 0.5480 7.5000
18:41 3.4 3 97 231 1.4 4.2 993.1 0.5480 7.5000
18:52 3.4 3 97 232 1.9 5 993.4 0.4110 7.5000
19:01 3.6 3.2 97 238 1.4 5.3 993.7 0.1370 7.5000
19:11 3.7 3.3 97 239 1.7 6.7 993.9 0.0000 7.5000
19:22 4 3.6 97 244 1.9 5.8 994.2 0.1370 7.7000
19:32 4 3.4 96 225 1.4 3.6 994.4 0.1370 7.7000
19:41 4 3.3 95 235 1.7 4.4 994.6 0.1370 7.7000
19:51 3.9 3.2 95 225 1.1 3.6 994.8 0.1370 7.7000
20:02 3.8 3.1 95 229 1.1 2.8 995.3 0.1370 7.7000
20:11 3.8 3.1 95 218 1.4 4.7 995.4 0.1370 7.7000
20:21 3.8 3.1 95 217 1.4 4.7 995.6 0.0000 7.7000
20:32 3.8 2.9 94 223 1.4 3.6 995.7 0.0000 7.7000
20:42 3.8 2.9 94 221 1.1 2.8 996 0.0000 7.7000
20:51 3.9 2.9 93 222 1.1 2.8 996 0.0000 7.7000
21:02 3.9 2.7 92 218 1.7 3.6 996.3 0.0000 7.7000
21:12 3.8 2.5 91 218 1.1 3.1 996.2 0.0000 7.7000
21:22 3.7 2.2 90 218 1.1 2.5 996.4 0.0000 7.7000
21:32 3.5 1.9 89 219 1.4 3.6 996.6 0.0000 7.7000
21:42 3.4 1.8 89 222 0.8 1.9 996.5 0.0000 7.7000
21:52 3.3 1.7 89 215 1.1 2.2 996.8 0.0000 7.7000
22:02 3.2 1.6 89 212 1.4 4.2 996.9 0.0000 7.7000

DAY STATISTIC

2019-12-14
TEMPERATURE
AVERAGE
4.8
HIGH
6.9
12:57
LOW
3.2
22:02
PRESSURE
AVERAGE
986.9
HIGH
996.9
22:02
LOW
980.7
04:28
DEWPOINT
AVERAGE
3.7
HIGH
5.1
16:55
LOW
1.6
22:02
HUMIDITY
AVERAGE
93
HIGH
100
08:39
LOW
78
13:07
WIND SPEED
AVERAGE
1.6
HIGH
3.9
17:05
WIND GUST
AVERAGE
4.5
HIGH
8.9
16:44
WIND DIRECTION
PREVAILING
SW
80.9%
N
0.0
NE
0.0
E
0.0
SE
0.0
S
9.9
SW
80.9
W
9.2
NW
0.0
PRECIPITATION
RAIN HOUR
1.6
RAIN DAY
7.7
TEMPERATURE (°C)
LOW
3.2
HIGH
6.9
AVERAGE
4.8
PRESSURE (hpa)
LOW
980.7
HIGH
996.9
AVERAGE
986.9
DEVICE